createdAt,value
2019-01-03T00:00:07.122Z,-1.60
2019-01-03T00:01:00.155Z,-1.60
2019-01-03T00:02:06.620Z,-1.60
2019-01-03T00:03:01.311Z,-1.60
2019-01-03T00:03:55.570Z,-1.60
2019-01-03T00:04:58.853Z,-1.60
2019-01-03T00:05:52.212Z,-1.60
2019-01-03T00:07:01.958Z,-1.60
2019-01-03T00:07:55.098Z,-1.60
2019-01-03T00:08:56.035Z,-1.60
2019-01-03T00:09:55.932Z,-1.60
2019-01-03T00:10:53.174Z,-1.60
2019-01-03T00:11:50.418Z,-1.60
2019-01-03T00:13:03.571Z,-1.70
2019-01-03T00:14:13.153Z,-1.60
2019-01-03T00:15:06.296Z,-1.60
2019-01-03T00:15:59.333Z,-1.60
2019-01-03T00:16:47.057Z,-1.60
2019-01-03T00:17:50.558Z,-1.60
2019-01-03T00:18:43.591Z,-1.70
2019-01-03T00:19:27.938Z,-1.60
2019-01-03T00:20:33.970Z,-1.60
2019-01-03T00:21:27.014Z,-1.60
2019-01-03T00:22:28.470Z,-1.70
2019-01-03T00:23:41.170Z,-1.60
2019-01-03T00:24:29.654Z,-1.70
2019-01-03T00:25:24.187Z,-1.70
2019-01-03T00:26:27.171Z,-1.70
2019-01-03T00:27:21.532Z,-1.60
2019-01-03T00:28:24.815Z,-1.70
2019-01-03T00:29:25.133Z,-1.70
2019-01-03T00:30:26.049Z,-1.70
2019-01-03T00:31:18.791Z,-1.70
2019-01-03T00:32:19.029Z,-1.70
2019-01-03T00:33:12.761Z,-1.70
2019-01-03T00:34:16.059Z,-1.70
2019-01-03T00:35:10.292Z,-1.70
2019-01-03T00:36:07.272Z,-1.70
2019-01-03T00:36:59.915Z,-1.70
2019-01-03T00:37:54.054Z,-1.70
2019-01-03T00:38:50.813Z,-1.60
2019-01-03T00:39:43.832Z,-1.70
2019-01-03T00:40:40.973Z,-1.70
2019-01-03T00:41:39.570Z,-1.70
2019-01-03T00:42:32.491Z,-1.70
2019-01-03T00:43:25.430Z,-1.70
2019-01-03T00:44:19.890Z,-1.70
2019-01-03T00:45:22.469Z,-1.70
2019-01-03T00:46:15.510Z,-1.70
2019-01-03T00:47:18.892Z,-1.70
2019-01-03T00:48:28.731Z,-1.70
2019-01-03T00:49:25.472Z,-1.70
2019-01-03T00:50:19.231Z,-1.70
2019-01-03T00:51:09.097Z,-1.70
2019-01-03T00:52:15.958Z,-1.70
2019-01-03T00:53:22.010Z,-1.70
2019-01-03T00:54:28.151Z,-1.70
2019-01-03T00:55:20.689Z,-1.70
2019-01-03T00:56:17.934Z,-1.70
2019-01-03T00:57:12.218Z,-1.70
2019-01-03T00:58:02.490Z,-1.70
2019-01-03T00:59:04.529Z,-1.70
2019-01-03T00:59:56.057Z,-1.70
2019-01-03T01:00:50.616Z,-1.70
2019-01-03T01:01:44.896Z,-1.70
2019-01-03T01:02:37.929Z,-1.70
2019-01-03T01:03:41.231Z,-1.70
2019-01-03T01:04:38.478Z,-1.70
2019-01-03T01:05:41.850Z,-1.70
2019-01-03T01:06:42.271Z,-1.80
2019-01-03T01:07:39.410Z,-1.70
2019-01-03T01:08:26.932Z,-1.70
2019-01-03T01:09:20.271Z,-1.70
2019-01-03T01:10:13.117Z,-1.70
2019-01-03T01:11:04.630Z,-1.70
2019-01-03T01:11:59.090Z,-1.70
2019-01-03T01:12:59.411Z,-1.70
2019-01-03T01:14:02.890Z,-1.70
2019-01-03T01:15:15.599Z,-1.70
2019-01-03T01:16:09.971Z,-1.70
2019-01-03T01:17:02.619Z,-1.80
2019-01-03T01:17:54.320Z,-1.70
2019-01-03T01:18:52.953Z,-1.80
2019-01-03T01:20:02.421Z,-1.80
2019-01-03T01:21:12.055Z,-1.80
2019-01-03T01:22:01.202Z,-1.80
2019-01-03T01:22:54.154Z,-1.80
2019-01-03T01:23:51.200Z,-1.80
2019-01-03T01:24:54.572Z,-1.80
2019-01-03T01:26:04.412Z,-1.80
2019-01-03T01:27:02.271Z,-1.80
2019-01-03T01:27:59.611Z,-1.80
2019-01-03T01:28:53.670Z,-1.80
2019-01-03T01:29:42.517Z,-1.80
2019-01-03T01:30:45.690Z,-1.80
2019-01-03T01:31:58.411Z,-1.80
2019-01-03T01:32:51.849Z,-1.80
2019-01-03T01:33:55.240Z,-1.80
2019-01-03T01:34:58.215Z,-1.80
2019-01-03T01:36:02.014Z,-1.80
2019-01-03T01:37:05.609Z,-1.80
2019-01-03T01:38:00.098Z,-1.80
2019-01-03T01:38:52.910Z,-1.90
2019-01-03T01:39:56.411Z,-1.80
2019-01-03T01:40:46.370Z,-1.80
2019-01-03T01:41:40.750Z,-1.80
2019-01-03T01:42:33.789Z,-1.80
2019-01-03T01:43:37.794Z,-1.90
2019-01-03T01:44:50.712Z,-1.80
2019-01-03T01:45:54.732Z,-1.90
2019-01-03T01:46:48.150Z,-1.80
2019-01-03T01:47:51.132Z,-1.80
2019-01-03T01:48:48.172Z,-1.80
2019-01-03T01:49:41.111Z,-1.90
2019-01-03T01:50:35.390Z,-1.90
2019-01-03T01:51:38.582Z,-1.90
2019-01-03T01:52:35.712Z,-1.90
2019-01-03T01:53:35.913Z,-1.90
2019-01-03T01:54:46.492Z,-1.90
2019-01-03T01:55:59.371Z,-2.00
2019-01-03T01:56:52.313Z,-1.90
2019-01-03T01:58:02.064Z,-1.90
2019-01-03T01:58:55.402Z,-1.90
2019-01-03T01:59:52.552Z,-1.90
2019-01-03T02:00:52.853Z,-1.90
2019-01-03T02:01:45.799Z,-1.90
2019-01-03T02:02:40.074Z,-1.90
2019-01-03T02:03:39.360Z,-1.90
2019-01-03T02:04:36.391Z,-2.00
2019-01-03T02:05:29.652Z,-2.00
2019-01-03T02:06:19.833Z,-2.00
2019-01-03T02:07:12.873Z,-2.00
2019-01-03T02:08:02.879Z,-2.00
2019-01-03T02:09:06.644Z,-2.00
2019-01-03T02:10:10.125Z,-2.00
2019-01-03T02:11:16.793Z,-2.10
2019-01-03T02:12:20.276Z,-2.00
2019-01-03T02:13:23.654Z,-2.10
2019-01-03T02:14:18.969Z,-2.10
2019-01-03T02:15:16.290Z,-2.10
2019-01-03T02:16:10.570Z,-2.10
2019-01-03T02:17:03.517Z,-2.10
2019-01-03T02:17:56.453Z,-2.10
2019-01-03T02:18:47.393Z,-2.10
2019-01-03T02:19:40.291Z,-2.20
2019-01-03T02:20:43.251Z,-2.20
2019-01-03T02:21:56.171Z,-2.20
2019-01-03T02:22:49.829Z,-2.20
2019-01-03T02:23:59.450Z,-2.20
2019-01-03T02:24:53.938Z,-2.20
2019-01-03T02:25:48.421Z,-2.20
2019-01-03T02:26:41.354Z,-2.20
2019-01-03T02:27:34.093Z,-2.20
2019-01-03T02:28:40.454Z,-2.20
2019-01-03T02:29:37.695Z,-2.20
2019-01-03T02:30:40.555Z,-2.20
2019-01-03T02:31:38.841Z,-2.20
2019-01-03T02:32:31.872Z,-2.20
2019-01-03T02:33:25.012Z,-2.20
2019-01-03T02:34:28.297Z,-2.20
2019-01-03T02:35:31.276Z,-2.20
2019-01-03T02:36:31.488Z,-2.20
2019-01-03T02:37:28.944Z,-2.20
2019-01-03T02:38:25.971Z,-2.20
2019-01-03T02:39:38.672Z,-2.20
2019-01-03T02:40:33.282Z,-2.20
2019-01-03T02:41:39.916Z,-2.20
2019-01-03T02:42:44.977Z,-2.30
2019-01-03T02:43:28.785Z,-2.30
2019-01-03T02:44:23.157Z,-2.30
2019-01-03T02:45:20.502Z,-2.30
2019-01-03T02:46:09.875Z,-2.40
2019-01-03T02:47:10.470Z,-2.40
2019-01-03T02:48:23.173Z,-2.40
2019-01-03T02:49:23.295Z,-2.40
2019-01-03T02:50:11.719Z,-2.40
2019-01-03T02:51:08.950Z,-2.50
2019-01-03T02:52:11.831Z,-2.50
2019-01-03T02:53:04.670Z,-2.50
2019-01-03T02:53:57.510Z,-2.50
2019-01-03T02:55:04.283Z,-2.50
2019-01-03T02:56:07.856Z,-2.50
2019-01-03T02:57:11.055Z,-2.50
2019-01-03T02:58:17.492Z,-2.50
2019-01-03T02:59:02.145Z,-2.60
2019-01-03T02:59:56.623Z,-2.60
2019-01-03T03:00:51.100Z,-2.60
2019-01-03T03:01:57.352Z,-2.60
2019-01-03T03:02:50.193Z,-2.60
2019-01-03T03:03:44.354Z,-2.60
2019-01-03T03:04:38.533Z,-2.60
2019-01-03T03:05:32.290Z,-2.60
2019-01-03T03:06:35.771Z,-2.60
2019-01-03T03:07:28.416Z,-2.60
2019-01-03T03:08:28.633Z,-2.60
2019-01-03T03:09:22.999Z,-2.50
2019-01-03T03:10:16.053Z,-2.60
2019-01-03T03:11:22.490Z,-2.60
2019-01-03T03:12:17.391Z,-2.60
2019-01-03T03:13:08.792Z,-2.60
2019-01-03T03:14:21.692Z,-2.50
2019-01-03T03:15:13.040Z,-2.60
2019-01-03T03:16:10.052Z,-2.60
2019-01-03T03:17:22.337Z,-2.50
2019-01-03T03:18:15.893Z,-2.50
2019-01-03T03:19:08.934Z,-2.50
2019-01-03T03:20:02.294Z,-2.50
2019-01-03T03:20:55.233Z,-2.50
2019-01-03T03:21:47.972Z,-2.50
2019-01-03T03:22:54.211Z,-2.60
2019-01-03T03:23:48.078Z,-2.60
2019-01-03T03:24:57.709Z,-2.60
2019-01-03T03:25:52.089Z,-2.60
2019-01-03T03:26:49.110Z,-2.60
2019-01-03T03:27:52.514Z,-2.60
2019-01-03T03:28:46.776Z,-2.60
2019-01-03T03:30:16.267Z,-2.60
2019-01-03T03:31:17.315Z,-2.60
2019-01-03T03:32:10.151Z,-2.60
2019-01-03T03:33:03.192Z,-2.70
2019-01-03T03:33:56.029Z,-2.70
2019-01-03T03:34:48.872Z,-2.70
2019-01-03T03:35:46.611Z,-2.70
2019-01-03T03:36:51.650Z,-2.70
2019-01-03T03:37:58.089Z,-2.70
2019-01-03T03:38:51.050Z,-2.70
2019-01-03T03:40:03.551Z,-2.60
2019-01-03T03:40:56.689Z,-2.60
2019-01-03T03:41:54.336Z,-2.60
2019-01-03T03:42:48.715Z,-2.60
2019-01-03T03:44:00.897Z,-2.60
2019-01-03T03:44:55.390Z,-2.60
2019-01-03T03:45:49.349Z,-2.60
2019-01-03T03:46:52.729Z,-2.70
2019-01-03T03:47:45.777Z,-2.70
2019-01-03T03:48:39.236Z,-2.70
2019-01-03T03:49:32.172Z,-2.70
2019-01-03T03:50:25.116Z,-2.70
2019-01-03T03:51:12.658Z,-2.60
2019-01-03T03:52:06.273Z,-2.70
2019-01-03T03:53:00.452Z,-2.70
2019-01-03T03:53:53.590Z,-2.70
2019-01-03T03:55:00.355Z,-2.70
2019-01-03T03:55:53.397Z,-2.70
2019-01-03T03:56:47.572Z,-2.70
2019-01-03T03:57:45.033Z,-2.70
2019-01-03T03:58:38.470Z,-2.70
2019-01-03T03:59:31.617Z,-2.70
2019-01-03T04:00:42.599Z,-2.70
2019-01-03T04:01:42.790Z,-2.70
2019-01-03T04:02:37.569Z,-2.70
2019-01-03T04:03:32.055Z,-2.70
2019-01-03T04:04:24.794Z,-2.70
2019-01-03T04:05:19.271Z,-2.70
2019-01-03T04:06:19.376Z,-2.80
2019-01-03T04:07:12.639Z,-2.70
2019-01-03T04:08:12.038Z,-2.70
2019-01-03T04:09:12.442Z,-2.70
2019-01-03T04:10:13.470Z,-2.70
2019-01-03T04:11:07.950Z,-2.70
2019-01-03T04:12:17.587Z,-2.70
2019-01-03T04:13:17.900Z,-2.70
2019-01-03T04:14:21.491Z,-2.70
2019-01-03T04:15:21.700Z,-2.70
2019-01-03T04:16:18.934Z,-2.70
2019-01-03T04:17:13.869Z,-2.70
2019-01-03T04:18:10.851Z,-2.60
2019-01-03T04:19:09.638Z,-2.60
2019-01-03T04:20:02.789Z,-2.60
2019-01-03T04:20:59.816Z,-2.60
2019-01-03T04:21:54.098Z,-2.60
2019-01-03T04:23:06.890Z,-2.60
2019-01-03T04:24:07.231Z,-2.60
2019-01-03T04:25:18.609Z,-2.70
2019-01-03T04:26:11.427Z,-2.70
2019-01-03T04:27:04.262Z,-2.70
2019-01-03T04:27:56.775Z,-2.70
2019-01-03T04:29:00.069Z,-2.70
2019-01-03T04:30:09.495Z,-2.70
2019-01-03T04:31:12.900Z,-2.70
2019-01-03T04:32:19.553Z,-2.80
2019-01-03T04:33:10.551Z,-2.70
2019-01-03T04:34:23.254Z,-2.70
2019-01-03T04:35:16.094Z,-2.70
2019-01-03T04:36:16.614Z,-2.70
2019-01-03T04:37:09.857Z,-2.70
2019-01-03T04:38:02.695Z,-2.70
2019-01-03T04:39:09.355Z,-2.70
2019-01-03T04:40:00.550Z,-2.70
2019-01-03T04:40:47.882Z,-2.70
2019-01-03T04:41:51.162Z,-2.70
2019-01-03T04:42:54.746Z,-2.70
2019-01-03T04:43:48.288Z,-2.70
2019-01-03T04:44:48.807Z,-2.70
2019-01-03T04:45:58.138Z,-2.70
2019-01-03T04:46:55.378Z,-2.70
2019-01-03T04:47:58.769Z,-2.70
2019-01-03T04:49:08.397Z,-2.70
2019-01-03T04:50:06.559Z,-2.60
2019-01-03T04:50:59.499Z,-2.60
2019-01-03T04:51:52.540Z,-2.70
2019-01-03T04:53:01.866Z,-2.70
2019-01-03T04:53:56.381Z,-2.70
2019-01-03T04:54:51.123Z,-2.70
2019-01-03T04:55:44.064Z,-2.70
2019-01-03T04:56:36.911Z,-2.70
2019-01-03T04:57:40.701Z,-2.70
2019-01-03T04:58:35.282Z,-2.70
2019-01-03T04:59:32.417Z,-2.70
2019-01-03T05:00:26.295Z,-2.70
2019-01-03T05:01:55.167Z,-2.70
2019-01-03T05:02:55.277Z,-2.70
2019-01-03T05:03:48.126Z,-2.70
2019-01-03T05:04:45.247Z,-2.70
2019-01-03T05:05:42.800Z,-2.70
2019-01-03T05:06:52.331Z,-2.70
2019-01-03T05:07:45.590Z,-2.70
2019-01-03T05:08:38.517Z,-2.70
2019-01-03T05:09:31.049Z,-2.70
2019-01-03T05:10:26.145Z,-2.70
2019-01-03T05:11:20.526Z,-2.70
2019-01-03T05:12:08.250Z,-2.70
2019-01-03T05:13:05.711Z,-2.70
2019-01-03T05:14:00.053Z,-2.70
2019-01-03T05:14:57.199Z,-2.70
2019-01-03T05:15:54.439Z,-2.70
2019-01-03T05:16:57.925Z,-2.70
2019-01-03T05:17:51.179Z,-2.70
2019-01-03T05:18:44.431Z,-2.70
2019-01-03T05:19:37.372Z,-2.70
2019-01-03T05:20:30.407Z,-2.70
2019-01-03T05:21:23.967Z,-2.70
2019-01-03T05:22:18.442Z,-2.60
2019-01-03T05:23:22.977Z,-2.70
2019-01-03T05:24:18.362Z,-2.60
2019-01-03T05:25:15.997Z,-2.60
2019-01-03T05:26:22.577Z,-2.60
2019-01-03T05:27:18.576Z,-2.60
2019-01-03T05:28:21.554Z,-2.60
2019-01-03T05:29:22.378Z,-2.60
2019-01-03T05:30:28.534Z,-2.70
2019-01-03T05:31:38.060Z,-2.70
2019-01-03T05:32:32.841Z,-2.70
2019-01-03T05:33:34.099Z,-2.70
2019-01-03T05:34:32.040Z,-2.60
2019-01-03T05:35:26.960Z,-2.70
2019-01-03T05:36:29.080Z,-2.60
2019-01-03T05:37:22.023Z,-2.70
2019-01-03T05:38:13.788Z,-2.60
2019-01-03T05:39:17.227Z,-2.70
2019-01-03T05:40:10.372Z,-2.60
2019-01-03T05:41:07.711Z,-2.70
2019-01-03T05:42:15.088Z,-2.70
2019-01-03T05:43:10.186Z,-2.60
2019-01-03T05:44:16.536Z,-2.60
2019-01-03T05:45:22.711Z,-2.70
2019-01-03T05:46:16.460Z,-2.60
2019-01-03T05:47:10.352Z,-2.60
2019-01-03T05:48:13.900Z,-2.60
2019-01-03T05:49:17.493Z,-2.70
2019-01-03T05:50:20.984Z,-2.70
2019-01-03T05:51:21.195Z,-2.70
2019-01-03T05:52:12.524Z,-2.70
2019-01-03T05:53:03.623Z,-2.70
2019-01-03T05:53:58.388Z,-2.70
2019-01-03T05:54:51.523Z,-2.70
2019-01-03T05:55:44.762Z,-2.60
2019-01-03T05:56:42.013Z,-2.60
2019-01-03T05:57:34.854Z,-2.70
2019-01-03T05:58:35.166Z,-2.60
2019-01-03T05:59:41.726Z,-2.60
2019-01-03T06:00:41.733Z,-2.60
2019-01-03T06:01:42.045Z,-2.60
2019-01-03T06:02:42.153Z,-2.60
2019-01-03T06:03:42.369Z,-2.60
2019-01-03T06:04:54.865Z,-2.60
2019-01-03T06:05:49.167Z,-2.60
2019-01-03T06:06:55.699Z,-2.60
2019-01-03T06:07:48.749Z,-2.60
2019-01-03T06:08:41.884Z,-2.60
2019-01-03T06:09:39.137Z,-2.60
2019-01-03T06:10:36.374Z,-2.60
2019-01-03T06:11:30.550Z,-2.60
2019-01-03T06:12:37.409Z,-2.70
2019-01-03T06:13:30.339Z,-2.70
2019-01-03T06:14:33.148Z,-2.70
2019-01-03T06:15:30.873Z,-2.70
2019-01-03T06:16:31.081Z,-2.70
2019-01-03T06:17:40.713Z,-2.70
2019-01-03T06:18:41.136Z,-2.70
2019-01-03T06:19:41.764Z,-2.70
2019-01-03T06:20:39.197Z,-2.70
2019-01-03T06:21:50.288Z,-2.70
2019-01-03T06:22:47.610Z,-2.70
2019-01-03T06:23:48.325Z,-2.70
2019-01-03T06:25:00.417Z,-2.70
2019-01-03T06:25:57.557Z,-2.60
2019-01-03T06:26:50.497Z,-2.70
2019-01-03T06:28:00.338Z,-2.70
2019-01-03T06:29:06.689Z,-2.60
2019-01-03T06:29:59.435Z,-2.70
2019-01-03T06:31:03.638Z,-2.70
2019-01-03T06:32:16.135Z,-2.70
2019-01-03T06:33:09.285Z,-2.70
2019-01-03T06:34:19.015Z,-2.70
2019-01-03T06:35:13.410Z,-2.70
2019-01-03T06:36:17.702Z,-2.70
2019-01-03T06:37:10.945Z,-2.70
2019-01-03T06:38:20.580Z,-2.70
2019-01-03T06:39:14.851Z,-2.70
2019-01-03T06:40:16.424Z,-2.70
2019-01-03T06:41:16.806Z,-2.70
2019-01-03T06:42:09.851Z,-2.70
2019-01-03T06:43:07.097Z,-2.70
2019-01-03T06:44:00.654Z,-2.70
2019-01-03T06:44:53.586Z,-2.70
2019-01-03T06:45:50.834Z,-2.70
2019-01-03T06:46:43.573Z,-2.70
2019-01-03T06:47:43.983Z,-2.70
2019-01-03T06:48:56.380Z,-2.70
2019-01-03T06:49:49.420Z,-2.70
2019-01-03T06:50:39.295Z,-2.70
2019-01-03T06:51:31.005Z,-2.70
2019-01-03T06:52:27.935Z,-2.70
2019-01-03T06:53:17.804Z,-2.70
2019-01-03T06:54:20.791Z,-2.60
2019-01-03T06:55:14.752Z,-2.70
2019-01-03T06:56:15.161Z,-2.60
2019-01-03T06:57:15.480Z,-2.60
2019-01-03T06:58:24.901Z,-2.60
2019-01-03T06:59:17.847Z,-2.60
2019-01-03T07:00:10.889Z,-2.60
2019-01-03T07:00:54.841Z,-2.60
2019-01-03T07:01:48.188Z,-2.60
2019-01-03T07:02:48.792Z,-2.50
2019-01-03T07:03:42.968Z,-2.50
2019-01-03T07:04:46.460Z,-2.50
2019-01-03T07:05:49.541Z,-2.50
2019-01-03T07:06:43.803Z,-2.50
2019-01-03T07:07:38.071Z,-2.50
2019-01-03T07:08:38.381Z,-2.50
2019-01-03T07:09:41.870Z,-2.50
2019-01-03T07:10:45.464Z,-2.50
2019-01-03T07:11:57.960Z,-2.50
2019-01-03T07:12:52.230Z,-2.50
2019-01-03T07:13:46.511Z,-2.50
2019-01-03T07:14:39.658Z,-2.50
2019-01-03T07:15:40.271Z,-2.50
2019-01-03T07:16:33.313Z,-2.50
2019-01-03T07:17:33.655Z,-2.40
2019-01-03T07:18:30.666Z,-2.40
2019-01-03T07:19:29.636Z,-2.40
2019-01-03T07:20:22.488Z,-2.40
2019-01-03T07:21:16.766Z,-2.40
2019-01-03T07:22:10.215Z,-2.40
2019-01-03T07:23:04.587Z,-2.40
2019-01-03T07:24:01.527Z,-2.40
2019-01-03T07:24:56.007Z,-2.40
2019-01-03T07:25:53.035Z,-2.40
2019-01-03T07:26:53.355Z,-2.40
2019-01-03T07:27:46.184Z,-2.30
2019-01-03T07:28:50.925Z,-2.40
2019-01-03T07:29:45.208Z,-2.40
2019-01-03T07:30:38.229Z,-2.40
2019-01-03T07:31:39.901Z,-2.40
2019-01-03T07:32:33.009Z,-2.40
2019-01-03T07:33:36.812Z,-2.30
2019-01-03T07:34:30.573Z,-2.30
2019-01-03T07:35:37.446Z,-2.30
2019-01-03T07:36:30.790Z,-2.40
2019-01-03T07:37:23.829Z,-2.30
2019-01-03T07:38:21.387Z,-2.30
2019-01-03T07:39:18.723Z,-2.30
2019-01-03T07:40:21.792Z,-2.30
2019-01-03T07:41:34.094Z,-2.30
2019-01-03T07:42:27.456Z,-2.20
2019-01-03T07:43:37.288Z,-2.20
2019-01-03T07:44:37.705Z,-2.30
2019-01-03T07:45:32.284Z,-2.30
2019-01-03T07:46:25.434Z,-2.30
2019-01-03T07:47:15.736Z,-2.20
2019-01-03T07:48:08.852Z,-2.30
2019-01-03T07:49:06.195Z,-2.30
2019-01-03T07:50:06.711Z,-2.30
2019-01-03T07:51:04.053Z,-2.20
2019-01-03T07:51:56.692Z,-2.20
2019-01-03T07:52:49.939Z,-2.20
2019-01-03T07:53:42.881Z,-2.20
2019-01-03T07:54:52.312Z,-2.10
2019-01-03T07:55:45.457Z,-2.10
2019-01-03T07:56:38.610Z,-2.10
2019-01-03T07:57:48.339Z,-2.00
2019-01-03T07:58:41.169Z,-2.10
2019-01-03T07:59:44.352Z,-2.00
2019-01-03T08:00:38.422Z,-2.10
2019-01-03T08:01:34.647Z,-2.10
2019-01-03T08:02:41.090Z,-2.10
2019-01-03T08:03:34.960Z,-2.10
2019-01-03T08:04:27.911Z,-2.10
2019-01-03T08:05:26.267Z,-2.10
2019-01-03T08:06:23.627Z,-2.00
2019-01-03T08:07:17.982Z,-1.90
2019-01-03T08:08:18.500Z,-1.90
2019-01-03T08:09:11.751Z,-1.90
2019-01-03T08:10:06.129Z,-1.80
2019-01-03T08:11:12.701Z,-1.70
2019-01-03T08:12:05.724Z,-1.70
2019-01-03T08:13:03.282Z,-1.60
2019-01-03T08:14:16.077Z,-1.60
2019-01-03T08:15:08.926Z,-1.60
2019-01-03T08:16:01.761Z,-1.60
2019-01-03T08:17:02.383Z,-1.60
2019-01-03T08:17:56.669Z,-1.60
2019-01-03T08:18:51.238Z,-1.60
2019-01-03T08:19:50.930Z,-1.60
2019-01-03T08:20:45.207Z,-1.50
2019-01-03T08:21:30.488Z,-1.60
2019-01-03T08:22:36.848Z,-1.60
2019-01-03T08:23:31.910Z,-1.60
2019-01-03T08:24:41.548Z,-1.60
2019-01-03T08:25:44.444Z,-1.50
2019-01-03T08:26:56.718Z,-1.60
2019-01-03T08:28:00.199Z,-1.60
2019-01-03T08:28:53.037Z,-1.60
2019-01-03T08:29:45.777Z,-1.70
2019-01-03T08:30:49.057Z,-1.70
2019-01-03T08:31:41.821Z,-1.70
2019-01-03T08:32:34.859Z,-1.70
2019-01-03T08:33:27.235Z,-1.70
2019-01-03T08:34:36.489Z,-1.70
2019-01-03T08:35:36.806Z,-1.60
2019-01-03T08:36:46.457Z,-1.60
2019-01-03T08:37:44.517Z,-1.50
2019-01-03T08:38:41.678Z,-1.40
2019-01-03T08:39:33.857Z,-1.20
2019-01-03T08:40:46.456Z,-1.20
2019-01-03T08:41:39.057Z,-1.10
2019-01-03T08:42:31.541Z,-0.90
2019-01-03T08:43:27.213Z,-0.80
2019-01-03T08:44:23.667Z,-0.70
2019-01-03T08:45:15.976Z,-0.60
2019-01-03T08:46:08.716Z,-0.50
2019-01-03T08:47:01.400Z,-0.50
2019-01-03T08:48:13.346Z,-0.50
2019-01-03T08:49:19.588Z,-0.60
2019-01-03T08:50:19.288Z,-0.50
2019-01-03T08:51:11.819Z,-0.50
2019-01-03T08:52:17.968Z,-0.40
2019-01-03T08:53:18.179Z,-0.40
2019-01-03T08:54:11.357Z,-0.60
2019-01-03T08:55:03.993Z,-0.60
2019-01-03T08:55:58.144Z,-0.60
2019-01-03T08:56:50.968Z,-0.60
2019-01-03T08:57:45.350Z,-0.50
2019-01-03T08:58:31.834Z,-0.50
2019-01-03T08:59:24.662Z,-0.60
2019-01-03T09:00:18.754Z,-0.60
2019-01-03T09:01:16.114Z,-0.70
2019-01-03T09:02:29.914Z,-0.70
2019-01-03T09:03:39.344Z,-0.80
2019-01-03T09:04:36.912Z,-0.80
2019-01-03T09:05:36.915Z,-0.90
2019-01-03T09:06:29.233Z,-1.00
2019-01-03T09:07:21.890Z,-1.10
2019-01-03T09:08:15.002Z,-1.10
2019-01-03T09:09:16.911Z,-1.20
2019-01-03T09:10:19.762Z,-1.10
2019-01-03T09:11:19.551Z,-1.10
2019-01-03T09:12:25.884Z,-1.10
2019-01-03T09:13:20.062Z,-1.20
2019-01-03T09:14:19.905Z,-1.20
2019-01-03T09:15:12.354Z,-1.30
2019-01-03T09:16:01.474Z,-1.20
2019-01-03T09:17:11.704Z,-1.20
2019-01-03T09:18:12.836Z,-1.20
2019-01-03T09:19:25.314Z,-1.30
2019-01-03T09:20:19.485Z,-1.30
2019-01-03T09:21:12.640Z,-1.20
2019-01-03T09:22:15.196Z,-1.10
2019-01-03T09:23:15.335Z,-1.10
2019-01-03T09:24:12.171Z,-1.00
2019-01-03T09:25:09.284Z,-0.90
2019-01-03T09:26:21.885Z,-0.80
2019-01-03T09:27:14.513Z,-0.80
2019-01-03T09:28:08.894Z,-0.80
2019-01-03T09:29:05.826Z,-0.90
2019-01-03T09:30:02.543Z,-1.00
2019-01-03T09:30:55.116Z,-1.00
2019-01-03T09:31:58.198Z,-1.00
2019-01-03T09:32:52.482Z,-1.00
2019-01-03T09:33:57.917Z,-1.10
2019-01-03T09:34:52.647Z,-1.10
2019-01-03T09:35:45.421Z,-1.10
2019-01-03T09:36:38.432Z,-1.10
2019-01-03T09:37:44.135Z,-1.00
2019-01-03T09:38:43.319Z,-1.00
2019-01-03T09:39:52.515Z,-0.90
2019-01-03T09:40:46.446Z,-0.80
2019-01-03T09:41:46.626Z,-0.80
2019-01-03T09:42:43.460Z,-0.80
2019-01-03T09:43:49.794Z,-1.00
2019-01-03T09:44:43.093Z,-1.00
2019-01-03T09:45:18.237Z,-1.10
2019-01-03T09:45:54.861Z,-1.10
2019-01-03T09:46:30.355Z,-1.10
2019-01-03T09:47:05.613Z,-1.20
2019-01-03T09:47:40.848Z,-1.10
2019-01-03T09:48:16.115Z,-1.10
2019-01-03T09:48:51.485Z,-1.10
2019-01-03T09:49:26.906Z,-1.00
2019-01-03T09:50:02.262Z,-1.00
2019-01-03T09:50:37.444Z,-1.00
2019-01-03T09:51:12.952Z,-1.00
2019-01-03T09:51:48.647Z,-0.90
2019-01-03T09:52:24.041Z,-0.90
2019-01-03T09:52:59.366Z,-0.90
2019-01-03T09:53:34.907Z,-0.90
2019-01-03T09:54:10.348Z,-0.70
2019-01-03T09:54:45.524Z,-0.70
2019-01-03T09:55:21.266Z,-0.60
2019-01-03T09:55:56.628Z,-0.60
2019-01-03T09:56:32.206Z,-0.50
2019-01-03T09:57:07.482Z,-0.40
2019-01-03T09:57:42.969Z,-0.40
2019-01-03T09:58:18.619Z,-0.40
2019-01-03T09:58:55.457Z,-0.40
2019-01-03T09:59:30.687Z,-0.50
2019-01-03T10:00:06.955Z,-0.40
2019-01-03T10:00:42.335Z,-0.40
2019-01-03T10:01:17.478Z,-0.50
2019-01-03T10:01:52.699Z,-0.50
2019-01-03T10:02:28.157Z,-0.50
2019-01-03T10:03:03.616Z,-0.50
2019-01-03T10:03:38.565Z,-0.50
2019-01-03T10:04:13.956Z,-0.50
2019-01-03T10:04:49.227Z,-0.40
2019-01-03T10:05:24.629Z,-0.40
2019-01-03T10:06:00.128Z,-0.30
2019-01-03T10:06:35.155Z,-0.30
2019-01-03T10:07:10.386Z,-0.30
2019-01-03T10:07:45.616Z,-0.30
2019-01-03T10:08:21.126Z,-0.30
2019-01-03T10:08:56.414Z,-0.30
2019-01-03T10:09:31.718Z,-0.30
2019-01-03T10:10:07.989Z,-0.30
2019-01-03T10:10:43.362Z,-0.30
2019-01-03T10:11:18.877Z,-0.30
2019-01-03T10:11:54.284Z,-0.30
2019-01-03T10:12:30.148Z,-0.30
2019-01-03T10:13:05.470Z,-0.40
2019-01-03T10:13:40.869Z,-0.50
2019-01-03T10:14:16.255Z,-0.50
2019-01-03T10:14:51.738Z,-0.40
2019-01-03T10:15:27.075Z,-0.50
2019-01-03T10:16:02.487Z,-0.60
2019-01-03T10:16:37.836Z,-0.60
2019-01-03T10:17:13.638Z,-0.50
2019-01-03T10:17:49.147Z,-0.60
2019-01-03T10:18:24.538Z,-0.50
2019-01-03T10:18:59.948Z,-0.60
2019-01-03T10:19:34.907Z,-0.50
2019-01-03T10:20:10.498Z,-0.50
2019-01-03T10:20:45.939Z,-0.50
2019-01-03T10:21:22.719Z,-0.60
2019-01-03T10:21:59.025Z,-0.60
2019-01-03T10:22:34.472Z,-0.60
2019-01-03T10:23:09.968Z,-0.70
2019-01-03T10:23:48.267Z,-0.70
2019-01-03T10:24:23.985Z,-0.70
2019-01-03T10:24:59.967Z,-0.80
2019-01-03T10:25:35.553Z,-0.80
2019-01-03T10:26:12.265Z,-0.80
2019-01-03T10:26:47.875Z,-0.80
2019-01-03T10:27:23.245Z,-0.80
2019-01-03T10:28:00.808Z,-0.80
2019-01-03T10:28:36.187Z,-0.70
2019-01-03T10:29:11.455Z,-0.70
2019-01-03T10:29:46.794Z,-0.50
2019-01-03T10:30:22.034Z,-0.40
2019-01-03T10:30:57.907Z,-0.30
2019-01-03T10:31:33.396Z,-0.10
2019-01-03T10:32:08.698Z,0.10
2019-01-03T10:32:43.764Z,0.20
2019-01-03T10:33:19.186Z,0.30
2019-01-03T10:33:54.525Z,0.30
2019-01-03T10:34:29.833Z,0.50
2019-01-03T10:35:05.268Z,0.70
2019-01-03T10:35:40.659Z,0.80
2019-01-03T10:36:16.097Z,0.90
2019-01-03T10:36:51.313Z,0.90
2019-01-03T10:37:26.835Z,0.80
2019-01-03T10:38:03.359Z,0.70
2019-01-03T10:38:39.000Z,0.60
2019-01-03T10:39:14.473Z,0.60
2019-01-03T10:39:49.867Z,0.60
2019-01-03T10:40:25.321Z,0.50
2019-01-03T10:41:00.624Z,0.50
2019-01-03T10:41:36.819Z,0.50
2019-01-03T10:42:12.088Z,0.50
2019-01-03T10:42:47.509Z,0.40
2019-01-03T10:43:23.064Z,0.40
2019-01-03T10:43:58.166Z,0.50
2019-01-03T10:44:33.772Z,0.60
2019-01-03T10:45:10.264Z,0.70
2019-01-03T10:45:45.468Z,0.80
2019-01-03T10:46:20.916Z,0.70
2019-01-03T10:46:56.474Z,0.60
2019-01-03T10:47:31.761Z,0.60
2019-01-03T10:48:07.304Z,0.50
2019-01-03T10:48:42.634Z,0.50
2019-01-03T10:49:19.355Z,0.60
2019-01-03T10:49:54.709Z,0.60
2019-01-03T10:50:30.036Z,0.60
2019-01-03T10:51:05.443Z,0.60
2019-01-03T10:51:40.526Z,0.60
2019-01-03T10:52:15.827Z,0.60
2019-01-03T10:52:51.079Z,0.70
2019-01-03T10:53:26.559Z,0.80
2019-01-03T10:54:02.041Z,0.80
2019-01-03T10:54:37.000Z,0.90
2019-01-03T10:55:12.485Z,0.80
2019-01-03T10:55:47.732Z,0.70
2019-01-03T10:56:24.214Z,0.80
2019-01-03T10:56:59.575Z,0.80
2019-01-03T10:57:34.994Z,0.80
2019-01-03T10:58:10.730Z,0.80
2019-01-03T10:58:46.056Z,0.70
2019-01-03T10:59:21.571Z,0.50
2019-01-03T10:59:56.973Z,0.50
2019-01-03T11:00:32.295Z,0.50
2019-01-03T11:01:07.670Z,0.50
2019-01-03T11:01:43.370Z,0.50
2019-01-03T11:02:18.555Z,0.60
2019-01-03T11:02:54.091Z,0.60
2019-01-03T11:03:30.467Z,0.70
2019-01-03T11:04:06.235Z,0.60
2019-01-03T11:04:42.871Z,0.60
2019-01-03T11:05:17.952Z,0.60
2019-01-03T11:05:53.527Z,0.60
2019-01-03T11:06:28.892Z,0.70
2019-01-03T11:07:04.288Z,0.70
2019-01-03T11:07:40.359Z,0.70
2019-01-03T11:08:22.686Z,0.70
2019-01-03T11:08:58.174Z,0.80
2019-01-03T11:09:33.571Z,0.70
2019-01-03T11:10:08.973Z,0.70
2019-01-03T11:10:44.529Z,0.70
2019-01-03T11:11:20.112Z,0.70
2019-01-03T11:11:59.481Z,0.70
2019-01-03T11:12:40.512Z,0.70
2019-01-03T11:13:15.987Z,0.60
2019-01-03T11:13:51.512Z,0.60
2019-01-03T11:14:31.159Z,0.40
2019-01-03T11:15:08.691Z,0.30
2019-01-03T11:15:44.933Z,0.20
2019-01-03T11:16:20.707Z,0.20
2019-01-03T11:16:58.295Z,0.20
2019-01-03T11:17:33.973Z,0.20
2019-01-03T11:18:11.172Z,0.10
2019-01-03T11:18:46.253Z,0.10
2019-01-03T11:19:21.492Z,0.10
2019-01-03T11:19:57.000Z,0.00
2019-01-03T11:20:33.692Z,0.00
2019-01-03T11:21:10.227Z,0.00
2019-01-03T11:21:45.992Z,0.10
2019-01-03T11:22:21.814Z,0.10
2019-01-03T11:22:58.332Z,0.20
2019-01-03T11:23:34.372Z,0.20
2019-01-03T11:24:09.832Z,0.20
2019-01-03T11:24:45.595Z,0.20
2019-01-03T11:25:21.012Z,0.30
2019-01-03T11:25:57.171Z,0.60
2019-01-03T11:26:32.672Z,0.70
2019-01-03T11:27:07.971Z,0.90
2019-01-03T11:27:44.739Z,1.00
2019-01-03T11:28:20.273Z,1.10